Time;durP1;ratioP1;P1;durP2;ratioP2;P2;SDS_P1;SDS_P2;PMS_P1;PMS_P2;Temp;Humidity;BMP_temperature;BMP_pressure;BME280_temperature;BME280_humidity;BME280_pressure;Samples;Min_cycle;Max_cycle;Signal;HPM_P1;HPM_P2
2022/06/17 00:00:18;;;;;;;0.85;0.50;;;;;;;18.58;nan;101214.13;4987362;28;20323;-73
2022/06/17 00:02:44;;;;;;;0.50;0.50;;;;;;;18.50;nan;101215.06;4986684;28;20026;-71
2022/06/17 00:05:09;;;;;;;0.80;0.50;;;;;;;18.42;nan;101218.69;4988473;28;20395;-71
2022/06/17 00:07:35;;;;;;;0.98;0.80;;;;;;;18.46;nan;101222.63;4987417;28;20363;-73
2022/06/17 00:10:01;;;;;;;0.82;0.60;;;;;;;18.42;nan;101216.00;4989610;28;20031;-71
2022/06/17 00:12:27;;;;;;;1.17;0.60;;;;;;;18.46;nan;101219.13;4987675;28;20038;-71
2022/06/17 00:17:36;;;;;;;1.50;0.88;;;;;;;18.54;nan;101226.22;4987244;28;20081;-72
2022/06/17 00:20:13;;;;;;;1.15;0.82;;;;;;;18.54;nan;101226.22;4988217;28;20038;-71
2022/06/17 00:22:40;;;;;;;2.40;0.73;;;;;;;18.45;nan;101215.63;4990255;28;20380;-72
2022/06/17 00:25:21;;;;;;;1.40;0.70;;;;;;;18.42;nan;101205.28;4989587;28;20058;-71
2022/06/17 00:27:46;;;;;;;2.50;0.80;;;;;;;18.38;nan;101206.66;4990292;28;20100;-71
2022/06/17 00:30:18;;;;;;;1.40;0.80;;;;;;;18.32;nan;101203.91;4990904;28;20038;-71
2022/06/17 00:32:44;;;;;;;1.13;0.70;;;;;;;18.23;nan;101195.97;4990326;28;20399;-71
2022/06/17 00:35:10;;;;;;;1.45;0.63;;;;;;;18.15;nan;101197.91;4991810;28;20045;-71
2022/06/17 00:37:36;;;;;;;0.82;0.60;;;;;;;18.06;nan;101202.50;4991735;28;20046;-71
2022/06/17 00:40:06;;;;;;;1.63;0.80;;;;;;;18.00;nan;101187.22;4990689;28;20042;-71
2022/06/17 00:42:31;;;;;;;1.20;0.80;;;;;;;17.97;nan;101184.88;4990563;28;20088;-71
2022/06/17 00:45:07;;;;;;;1.42;0.77;;;;;;;17.93;nan;101178.25;4990986;28;20046;-72
2022/06/17 00:47:37;;;;;;;1.75;0.90;;;;;;;17.99;nan;101172.16;4988229;28;20045;-71
2022/06/17 00:50:21;;;;;;;1.75;0.90;;;;;;;17.97;nan;101175.03;4994017;28;20042;-71
2022/06/17 00:53:15;;;;;;;1.17;0.82;;;;;;;17.92;nan;101171.22;4991091;28;20038;-71
2022/06/17 00:55:48;;;;;;;2.00;0.77;;;;;;;17.88;nan;101184.16;4990983;28;20030;-71
2022/06/17 00:58:32;;;;;;;1.65;0.70;;;;;;;17.89;nan;101179.63;4989700;28;20432;-71
2022/06/17 01:01:02;;;;;;;1.10;0.75;;;;;;;17.90;nan;101179.47;4970970;28;20034;-71
2022/06/17 01:03:36;;;;;;;1.80;0.80;;;;;;;17.87;nan;101182.47;4990707;28;20136;-71
2022/06/17 01:06:09;;;;;;;2.45;0.90;;;;;;;17.82;nan;101193.72;4990364;28;20117;-71
2022/06/17 01:11:26;;;;;;;2.40;0.90;;;;;;;17.68;nan;101183.81;4989981;28;20526;-71
2022/06/17 01:13:51;;;;;;;1.05;0.70;;;;;;;17.62;nan;101185.38;4989596;28;20038;-72
2022/06/17 01:16:23;;;;;;;1.20;0.70;;;;;;;17.57;nan;101187.78;4990619;28;20048;-71
2022/06/17 01:18:52;;;;;;;1.00;0.60;;;;;;;17.50;nan;101192.19;4988527;28;20042;-71
2022/06/17 01:21:37;;;;;;;0.90;0.60;;;;;;;17.40;nan;101194.28;4988561;28;20407;-71
2022/06/17 01:24:03;;;;;;;1.08;0.70;;;;;;;17.27;nan;101197.56;4990859;28;20232;-71
2022/06/17 01:26:28;;;;;;;1.20;0.73;;;;;;;17.18;nan;101206.63;4990797;28;20121;-71
2022/06/17 01:28:53;;;;;;;1.20;0.80;;;;;;;17.09;nan;101205.88;4973647;28;20038;-71
2022/06/17 01:31:19;;;;;;;0.80;0.60;;;;;;;17.03;nan;101205.75;4972896;28;20049;-71
2022/06/17 01:33:44;;;;;;;1.23;0.60;;;;;;;16.93;nan;101209.50;4989847;28;20207;-71
2022/06/17 01:36:25;;;;;;;1.10;0.70;;;;;;;16.87;nan;101217.38;4989640;28;20030;-71
2022/06/17 01:38:53;;;;;;;1.23;0.70;;;;;;;16.85;nan;101214.03;4988569;28;20034;-71
2022/06/17 01:41:29;;;;;;;1.20;0.73;;;;;;;16.84;nan;101218.56;4988074;28;20384;-71
2022/06/17 01:44:07;;;;;;;1.40;0.65;;;;;;;16.84;nan;101215.06;4993669;28;20054;-71
2022/06/17 01:46:36;;;;;;;2.10;0.75;;;;;;;16.85;nan;101209.56;4989719;28;20042;-73
2022/06/17 01:49:06;;;;;;;0.85;0.60;;;;;;;16.88;nan;101213.72;4989932;28;20046;-71
2022/06/17 01:51:35;;;;;;;1.27;0.77;;;;;;;16.87;nan;101218.19;4984277;28;20034;-71
2022/06/17 01:54:07;;;;;;;0.93;0.70;;;;;;;16.88;nan;101216.38;4989774;28;20407;-71
2022/06/17 01:56:35;;;;;;;0.75;0.60;;;;;;;16.80;nan;101227.09;4989998;28;20098;-71
2022/06/17 01:59:07;;;;;;;1.30;0.70;;;;;;;16.69;nan;101220.28;4989663;28;21391;-71
2022/06/17 02:01:36;;;;;;;1.10;0.80;;;;;;;16.59;nan;101214.31;4988866;28;20038;-72
2022/06/17 02:04:10;;;;;;;0.80;0.60;;;;;;;16.52;nan;101223.03;4990128;28;20066;-71
2022/06/17 02:06:46;;;;;;;0.85;0.60;;;;;;;16.44;nan;101217.72;4990591;28;20038;-71
2022/06/17 02:09:12;;;;;;;0.70;0.60;;;;;;;16.38;nan;101209.59;4989291;28;20483;-71
2022/06/17 02:11:38;;;;;;;0.63;0.60;;;;;;;16.30;nan;101210.44;4989250;28;21436;-73
2022/06/17 02:14:06;;;;;;;0.90;0.60;;;;;;;16.22;nan;101208.63;4989126;28;20065;-71
2022/06/17 02:16:43;;;;;;;0.57;0.50;;;;;;;16.14;nan;101212.16;4992013;28;20039;-71
2022/06/17 02:19:09;;;;;;;1.02;0.68;;;;;;;16.09;nan;101213.69;4990609;28;20491;-73
2022/06/17 02:21:42;;;;;;;0.80;0.68;;;;;;;16.12;nan;101214.16;4989241;28;20069;-71
2022/06/17 02:24:09;;;;;;;1.70;0.90;;;;;;;16.16;nan;101209.34;4988336;28;20034;-71
2022/06/17 02:26:37;;;;;;;1.33;0.80;;;;;;;16.27;nan;101205.44;4989721;28;20288;-71
2022/06/17 02:29:06;;;;;;;1.75;0.95;;;;;;;16.38;nan;101207.75;4990433;28;20080;-71
2022/06/17 02:31:33;;;;;;;1.30;0.90;;;;;;;16.41;nan;101202.06;4989031;28;20129;-71
2022/06/17 02:33:59;;;;;;;1.50;0.80;;;;;;;16.37;nan;101206.06;4989773;28;20519;-71
2022/06/17 02:36:38;;;;;;;0.90;0.73;;;;;;;16.26;nan;101206.47;4989808;28;20096;-71
2022/06/17 02:39:04;;;;;;;1.33;0.70;;;;;;;16.18;nan;101211.81;4988558;28;20392;-71
2022/06/17 02:41:30;;;;;;;0.80;0.50;;;;;;;16.10;nan;101208.16;4989498;28;20038;-71
2022/06/17 02:44:05;;;;;;;1.40;0.90;;;;;;;16.12;nan;101205.34;4990301;28;20034;-71
2022/06/17 02:46:38;;;;;;;1.05;0.80;;;;;;;16.15;nan;101215.66;4986353;28;20112;-71
2022/06/17 02:49:07;;;;;;;2.22;1.00;;;;;;;16.22;nan;101213.97;4989200;28;20731;-71
2022/06/17 02:51:38;;;;;;;1.52;0.82;;;;;;;16.21;nan;101211.47;4989437;28;20039;-71
2022/06/17 02:54:05;;;;;;;1.27;0.90;;;;;;;16.10;nan;101215.34;4990294;28;20038;-71
2022/06/17 02:56:33;;;;;;;1.30;0.90;;;;;;;16.02;nan;101221.53;4989650;28;20038;-71
2022/06/17 02:59:20;;;;;;;1.10;0.70;;;;;;;15.94;nan;101221.53;4988879;28;20034;-71
2022/06/17 03:01:46;;;;;;;1.42;0.90;;;;;;;15.83;nan;101216.59;4986262;28;20038;-71
2022/06/17 03:04:16;;;;;;;1.90;0.70;;;;;;;15.71;nan;101222.25;4985939;28;20034;-71
2022/06/17 03:06:45;;;;;;;0.90;0.70;;;;;;;15.62;nan;101222.41;4989893;28;20507;-73
2022/06/17 03:09:32;;;;;;;1.55;0.88;;;;;;;15.50;nan;101230.72;4990386;28;20515;-73
2022/06/17 03:12:11;;;;;;;2.15;0.80;;;;;;;15.43;nan;101229.72;4989005;28;20042;-71
2022/06/17 03:14:51;;;;;;;2.05;1.10;;;;;;;15.36;nan;101238.56;4988639;28;20070;-73
2022/06/17 03:17:20;;;;;;;1.90;0.90;;;;;;;15.29;nan;101227.72;4989606;28;20073;-73
2022/06/17 03:19:47;;;;;;;2.20;0.90;;;;;;;15.25;nan;101237.03;4988038;28;21539;-72
2022/06/17 03:22:14;;;;;;;1.75;0.90;;;;;;;15.18;nan;101233.38;4988150;28;20038;-72
2022/06/17 03:24:42;;;;;;;1.85;0.95;;;;;;;15.12;nan;101234.88;4987750;28;20116;-71
2022/06/17 03:27:13;;;;;;;2.72;1.17;;;;;;;15.09;nan;101232.53;4985624;28;20396;-72
2022/06/17 03:29:42;;;;;;;1.60;1.10;;;;;;;15.04;nan;101235.69;4988668;28;20042;-72
2022/06/17 03:32:16;;;;;;;2.13;1.10;;;;;;;14.99;nan;101243.34;4968452;28;20427;-72
2022/06/17 03:34:47;;;;;;;2.08;1.20;;;;;;;15.03;nan;101251.84;4987917;28;20045;-71
2022/06/17 03:37:26;;;;;;;2.60;1.10;;;;;;;15.09;nan;101243.19;4988627;28;20395;-71
2022/06/17 03:39:58;;;;;;;1.13;0.95;;;;;;;15.17;nan;101239.72;4987301;28;20090;-71
2022/06/17 03:42:34;;;;;;;1.30;0.98;;;;;;;15.18;nan;101239.56;4972181;28;20381;-72
2022/06/17 03:45:02;;;;;;;1.65;0.80;;;;;;;15.21;nan;101241.06;4988093;28;20042;-71
2022/06/17 03:47:57;;;;;;;1.20;0.80;;;;;;;15.25;nan;101242.38;4987543;28;20067;-72
2022/06/17 03:50:31;;;;;;;2.50;1.00;;;;;;;15.31;nan;101243.56;4973221;28;20042;-72
2022/06/17 03:53:01;;;;;;;1.30;0.80;;;;;;;15.35;nan;101244.88;4986329;28;20038;-72
2022/06/17 03:55:28;;;;;;;1.52;0.80;;;;;;;15.39;nan;101240.88;4986397;28;20515;-72
2022/06/17 03:57:56;;;;;;;1.80;1.00;;;;;;;15.41;nan;101252.22;4986775;28;20050;-72
2022/06/17 04:00:30;;;;;;;1.05;0.80;;;;;;;15.38;nan;101260.56;4967316;28;20058;-72
2022/06/17 04:02:58;;;;;;;1.27;0.95;;;;;;;15.32;nan;101267.34;4987575;28;20035;-72
2022/06/17 04:05:24;;;;;;;0.60;0.60;;;;;;;15.26;nan;101270.69;4987316;28;20037;-71
2022/06/17 04:07:50;;;;;;;1.23;0.73;;;;;;;15.22;nan;101266.69;4986381;28;20037;-72
2022/06/17 04:10:20;;;;;;;1.40;0.73;;;;;;;15.22;nan;101278.16;4988100;28;20030;-71
2022/06/17 04:12:51;;;;;;;1.15;0.70;;;;;;;15.23;nan;101279.84;4968655;28;20158;-72
2022/06/17 04:15:16;;;;;;;1.38;0.80;;;;;;;15.24;nan;101289.50;4973951;28;20038;-71
2022/06/17 04:17:46;;;;;;;1.40;0.97;;;;;;;15.24;nan;101289.50;4989618;28;20539;-72
2022/06/17 04:20:24;;;;;;;0.80;0.70;;;;;;;15.27;nan;101283.84;4987832;28;20448;-72
2022/06/17 04:22:52;;;;;;;2.85;0.90;;;;;;;15.31;nan;101295.00;4992915;28;20034;-72
2022/06/17 04:25:29;;;;;;;2.00;1.00;;;;;;;15.26;nan;101292.84;4987005;28;20097;-72
2022/06/17 04:27:56;;;;;;;2.10;1.13;;;;;;;15.28;nan;101287.34;4985669;28;20133;-72
2022/06/17 04:30:25;;;;;;;1.67;1.02;;;;;;;15.29;nan;101291.69;4987820;28;22536;-71
2022/06/17 04:32:56;;;;;;;1.25;0.88;;;;;;;15.36;nan;101300.69;4987449;28;20042;-72
2022/06/17 04:35:21;;;;;;;1.60;0.95;;;;;;;15.41;nan;101300.19;4987804;28;20499;-72
2022/06/17 04:37:46;;;;;;;1.45;1.00;;;;;;;15.50;nan;101301.88;4987126;28;20045;-72
2022/06/17 04:40:40;;;;;;;1.35;0.98;;;;;;;15.65;nan;101297.53;4986856;28;20118;-71
2022/06/17 04:43:17;;;;;;;1.42;0.98;;;;;;;15.77;nan;101298.06;4992336;28;20037;-72
2022/06/17 04:45:53;;;;;;;1.42;0.98;;;;;;;15.89;nan;101303.91;4987989;28;20048;-71
2022/06/17 04:48:19;;;;;;;2.58;1.05;;;;;;;16.00;nan;101311.56;4986819;28;20454;-72
2022/06/17 04:50:44;;;;;;;1.40;0.90;;;;;;;16.10;nan;101314.06;4988228;28;20035;-72
2022/06/17 04:53:10;;;;;;;3.17;1.17;;;;;;;16.22;nan;101319.88;4987526;28;20675;-72
2022/06/17 04:55:41;;;;;;;2.47;1.20;;;;;;;16.31;nan;101314.38;4992659;28;20042;-71
2022/06/17 04:58:14;;;;;;;2.40;0.98;;;;;;;16.42;nan;101315.00;4986063;28;20073;-72
2022/06/17 05:00:48;;;;;;;1.67;1.20;;;;;;;16.54;nan;101318.97;4988227;28;20402;-71
2022/06/17 05:03:14;;;;;;;1.75;1.00;;;;;;;16.68;nan;101320.91;4986846;28;20053;-71
2022/06/17 05:05:41;;;;;;;1.55;0.80;;;;;;;16.76;nan;101328.91;4986801;28;20114;-72
2022/06/17 05:08:33;;;;;;;1.30;0.95;;;;;;;16.91;nan;101322.88;4988968;28;20035;-72
2022/06/17 05:11:04;;;;;;;1.58;0.90;;;;;;;17.02;nan;101327.84;4985970;28;20053;-72
2022/06/17 05:13:50;;;;;;;1.47;1.00;;;;;;;17.13;nan;101330.09;4990790;28;20124;-72
2022/06/17 05:16:15;;;;;;;1.80;0.80;;;;;;;17.26;nan;101329.56;4992377;28;20034;-72
2022/06/17 05:18:41;;;;;;;1.60;0.90;;;;;;;17.38;nan;101335.34;4991137;28;20481;-72
2022/06/17 05:21:13;;;;;;;1.40;0.90;;;;;;;17.53;nan;101336.22;4991277;28;20045;-72
2022/06/17 05:23:38;;;;;;;1.75;1.10;;;;;;;17.65;nan;101335.81;4990663;28;20034;-72
2022/06/17 05:26:03;;;;;;;2.28;0.90;;;;;;;17.78;nan;101338.72;4990110;28;20046;-72
2022/06/17 05:28:28;;;;;;;2.73;1.10;;;;;;;17.91;nan;101333.63;4991172;28;20035;-72
2022/06/17 05:30:56;;;;;;;2.38;1.05;;;;;;;18.06;nan;101336.34;4990835;28;20286;-72
2022/06/17 05:33:23;;;;;;;1.55;0.95;;;;;;;18.18;nan;101334.06;4989842;28;20030;-72
2022/06/17 05:35:48;;;;;;;2.58;0.98;;;;;;;18.28;nan;101329.25;4988720;28;20038;-71
2022/06/17 05:38:14;;;;;;;3.75;1.15;;;;;;;18.49;nan;101327.72;4989882;28;20623;-72
2022/06/17 05:40:41;;;;;;;2.40;0.90;;;;;;;18.61;nan;101324.38;4991405;28;20499;-72
2022/06/17 05:43:07;;;;;;;2.38;1.20;;;;;;;18.74;nan;101313.03;4995029;28;20112;-72
2022/06/17 05:45:33;;;;;;;1.90;1.08;;;;;;;18.88;nan;101314.88;4990735;28;20633;-72
2022/06/17 05:47:59;;;;;;;1.80;1.00;;;;;;;19.03;nan;101324.75;4990672;28;20096;-72
2022/06/17 05:50:26;;;;;;;2.53;1.00;;;;;;;19.30;nan;101323.19;4989379;28;20039;-72
2022/06/17 05:52:53;;;;;;;1.10;0.82;;;;;;;19.80;nan;101329.50;4989851;28;20486;-73
2022/06/17 05:55:20;;;;;;;1.67;1.00;;;;;;;20.30;nan;101324.09;4990685;28;20391;-72
2022/06/17 05:57:45;;;;;;;1.60;1.00;;;;;;;20.83;nan;101323.59;4990178;28;20048;-72
2022/06/17 06:00:12;;;;;;;2.63;0.80;;;;;;;21.33;nan;101330.41;4990294;28;20141;-72
2022/06/17 06:02:38;;;;;;;1.60;0.80;;;;;;;21.74;nan;101329.47;4990153;28;20050;-72
2022/06/17 06:05:04;;;;;;;1.80;0.85;;;;;;;22.15;nan;101339.19;4989268;28;20034;-73
2022/06/17 06:07:29;;;;;;;1.40;0.80;;;;;;;22.51;nan;101337.09;4989760;28;20057;-72
2022/06/17 06:09:55;;;;;;;1.00;0.70;;;;;;;22.99;nan;101328.66;4989825;28;20026;-73
2022/06/17 06:12:20;;;;;;;1.60;0.80;;;;;;;23.49;nan;101331.50;4989642;28;20073;-73
2022/06/17 06:14:46;;;;;;;2.57;0.90;;;;;;;23.77;nan;101325.72;4991681;28;20798;-73
2022/06/17 06:17:11;;;;;;;1.67;0.88;;;;;;;24.12;nan;101326.06;4990331;28;20628;-73
2022/06/17 06:19:36;;;;;;;1.90;0.88;;;;;;;24.59;nan;101328.28;4988793;28;20138;-73
2022/06/17 06:22:02;;;;;;;1.70;0.80;;;;;;;25.04;nan;101325.25;4988976;28;20070;-73
2022/06/17 06:24:27;;;;;;;3.75;0.88;;;;;;;25.25;nan;101323.97;4989529;28;20041;-73
2022/06/17 06:26:53;;;;;;;1.67;0.60;;;;;;;25.59;nan;101327.81;4990782;28;20038;-74
2022/06/17 06:29:18;;;;;;;2.33;0.77;;;;;;;26.00;nan;101334.25;4966942;28;20062;-73
2022/06/17 06:31:44;;;;;;;1.38;0.60;;;;;;;26.19;nan;101334.16;4989638;28;20078;-74
2022/06/17 06:34:10;;;;;;;2.45;0.73;;;;;;;26.16;nan;101332.75;4988996;28;20058;-73
2022/06/17 06:36:35;;;;;;;;;;;;;;;26.36;nan;101337.81;4984582;28;20411;-73
2022/06/17 06:39:01;;;;;;;1.37;0.70;;;;;;;26.51;nan;101341.94;4987912;28;19928;-74
2022/06/17 06:41:26;;;;;;;1.20;0.63;;;;;;;26.75;nan;101340.03;4989387;28;20992;-73
2022/06/17 06:43:52;;;;;;;1.90;0.70;;;;;;;27.16;nan;101346.25;4989670;28;20038;-73
2022/06/17 06:46:19;;;;;;;1.25;0.60;;;;;;;27.16;nan;101360.66;4988433;28;20293;-73
2022/06/17 06:48:46;;;;;;;1.20;0.70;;;;;;;27.43;nan;101362.81;4989506;28;20133;-73
2022/06/17 06:51:11;;;;;;;1.77;0.70;;;;;;;27.89;nan;101358.22;4989082;28;20348;-73
2022/06/17 06:53:36;;;;;;;1.98;0.60;;;;;;;28.14;nan;101357.75;4989228;28;20038;-73
2022/06/17 06:56:05;;;;;;;1.08;0.60;;;;;;;28.40;nan;101353.53;4988409;28;20105;-73
2022/06/17 06:58:30;;;;;;;3.28;0.77;;;;;;;28.50;nan;101347.44;4988909;28;20522;-74
2022/06/17 07:00:56;;;;;;;1.10;0.70;;;;;;;28.70;nan;101355.88;4988539;28;20042;-73
2022/06/17 07:03:23;;;;;;;0.90;0.55;;;;;;;28.86;nan;101361.50;4988155;28;20054;-73
2022/06/17 07:05:51;;;;;;;1.83;0.60;;;;;;;28.88;nan;101351.97;4989134;28;20125;-73
2022/06/17 07:08:20;;;;;;;1.15;0.60;;;;;;;29.07;nan;101355.22;4972301;28;20053;-74
2022/06/17 07:10:47;;;;;;;1.77;0.60;;;;;;;29.15;nan;101359.41;4990376;28;20162;-73
2022/06/17 07:13:12;;;;;;;1.10;0.60;;;;;;;29.06;nan;101355.47;4987760;28;20100;-74
2022/06/17 07:15:41;;;;;;;2.75;0.50;;;;;;;29.20;nan;101288.66;4990750;28;20043;-73
2022/06/17 07:18:10;;;;;;;1.38;0.60;;;;;;;29.45;nan;101279.88;4989198;28;20034;-73
2022/06/17 07:20:38;;;;;;;1.23;0.70;;;;;;;29.45;nan;101270.88;4988744;28;20042;-73
2022/06/17 07:23:08;;;;;;;0.90;0.50;;;;;;;29.39;nan;101262.66;4988483;28;20026;-73
2022/06/17 07:25:34;;;;;;;1.13;0.52;;;;;;;29.68;nan;101357.78;4988856;28;20450;-74
2022/06/17 07:28:00;;;;;;;2.30;0.50;;;;;;;29.84;nan;101362.28;4988555;28;20030;-73
2022/06/17 07:30:27;;;;;;;0.93;0.60;;;;;;;30.11;nan;101353.19;4988557;28;20406;-74
2022/06/17 07:32:52;;;;;;;2.92;0.70;;;;;;;30.16;nan;101358.69;4988840;28;20038;-73
2022/06/17 07:35:18;;;;;;;1.42;0.60;;;;;;;30.24;nan;101360.09;4987589;28;20082;-74
2022/06/17 07:40:28;;;;;;;1.20;0.65;;;;;;;30.47;nan;101361.63;4986477;28;20049;-74
2022/06/17 07:42:54;;;;;;;1.25;0.68;;;;;;;30.79;nan;101352.47;4988770;28;20038;-74
2022/06/17 07:45:21;;;;;;;1.58;0.65;;;;;;;30.78;nan;101357.13;4970289;28;20038;-74
2022/06/17 07:47:48;;;;;;;1.67;0.50;;;;;;;30.63;nan;101357.03;4988850;28;20493;-74
2022/06/17 07:50:19;;;;;;;0.40;0.40;;;;;;;30.77;nan;101347.28;4967298;28;20454;-74
2022/06/17 07:52:45;;;;;;;0.50;0.40;;;;;;;30.85;nan;101351.44;4987754;28;20038;-73
2022/06/17 07:55:10;;;;;;;;;;;;;;;30.95;nan;101337.00;4987323;28;20062;-74
2022/06/17 07:57:35;;;;;;;1.40;0.60;;;;;;;31.36;nan;101348.03;4990529;28;19952;-74
2022/06/17 08:00:03;;;;;;;1.17;0.60;;;;;;;31.66;nan;101344.53;4990448;28;20065;-74
2022/06/17 08:02:28;;;;;;;1.13;0.50;;;;;;;31.83;nan;101344.25;4990182;28;20062;-73
2022/06/17 08:04:53;;;;;;;0.37;0.37;;;;;;;32.31;nan;101334.59;4990119;28;20317;-74
2022/06/17 08:07:19;;;;;;;1.88;0.65;;;;;;;32.66;nan;101335.59;5002807;28;20811;-74
2022/06/17 08:09:45;;;;;;;0.90;0.60;;;;;;;32.27;nan;101328.03;4997120;28;20108;-74
2022/06/17 08:12:13;;;;;;;3.03;0.70;;;;;;;32.65;nan;101325.72;5004428;28;20037;-74
2022/06/17 08:14:43;;;;;;;1.40;0.57;;;;;;;33.09;nan;101315.97;5002703;28;20038;-74
2022/06/17 08:17:11;;;;;;;1.05;0.60;;;;;;;33.12;nan;101320.84;4993343;28;20251;-74
2022/06/17 08:19:36;;;;;;;1.15;0.60;;;;;;;33.34;nan;101318.50;4990056;28;20083;-74
2022/06/17 08:22:03;;;;;;;1.63;0.55;;;;;;;33.63;nan;101315.00;4967890;28;20144;-73
2022/06/17 08:24:28;;;;;;;1.05;0.50;;;;;;;33.83;nan;101323.06;4984136;28;20118;-74
2022/06/17 08:26:54;;;;;;;1.00;0.50;;;;;;;34.10;nan;101320.91;4988385;28;20081;-74
2022/06/17 08:29:20;;;;;;;1.90;0.68;;;;;;;34.38;nan;101331.00;4987090;28;20042;-74
2022/06/17 08:31:46;;;;;;;1.65;0.80;;;;;;;34.14;nan;101324.69;4988311;28;20050;-74
2022/06/17 08:34:11;;;;;;;1.25;0.70;;;;;;;34.35;nan;101322.50;4986816;28;20105;-74
2022/06/17 08:36:36;;;;;;;1.87;0.80;;;;;;;34.50;nan;101327.03;4987568;28;20671;-74
2022/06/17 08:39:06;;;;;;;1.83;0.75;;;;;;;34.91;nan;101332.81;4988357;28;20281;-75
2022/06/17 08:41:35;;;;;;;0.75;0.50;;;;;;;35.68;nan;101327.00;4988415;28;20037;-74
2022/06/17 08:44:37;;;;;;;1.95;0.60;;;;;;;36.54;nan;101318.19;4992776;28;20026;-75
2022/06/17 08:47:14;;;;;;;1.10;0.60;;;;;;;37.10;nan;101327.19;4989300;28;20444;-74
2022/06/17 08:50:20;;;;;;;2.17;0.70;;;;;;;37.40;nan;101319.31;4984965;28;20517;-74
2022/06/17 08:52:58;;;;;;;2.03;0.63;;;;;;;37.05;nan;101315.44;4985762;28;20034;-75
2022/06/17 08:55:39;;;;;;;1.10;0.50;;;;;;;36.89;nan;101321.31;4984771;28;20126;-75
2022/06/17 08:58:21;;;;;;;1.52;0.50;;;;;;;37.51;nan;101311.59;4995681;28;20034;-74
2022/06/17 09:01:07;;;;;;;1.15;0.60;;;;;;;37.46;nan;101307.00;4990052;28;20113;-74
2022/06/17 09:04:00;;;;;;;1.73;0.80;;;;;;;36.99;nan;101300.94;4992205;28;20058;-74
2022/06/17 09:06:42;;;;;;;1.17;0.77;;;;;;;36.98;nan;101291.88;4990590;28;20053;-74
2022/06/17 09:09:33;;;;;;;1.88;0.70;;;;;;;37.50;nan;101298.94;4993000;28;20031;-74
2022/06/17 09:12:25;;;;;;;2.92;0.80;;;;;;;38.35;nan;101285.81;4979261;28;20034;-74
2022/06/17 09:15:14;;;;;;;1.27;0.70;;;;;;;39.64;nan;101299.19;4993515;28;20033;-75
2022/06/17 09:17:50;;;;;;;2.10;0.70;;;;;;;40.30;nan;101291.28;4993459;28;20065;-74
2022/06/17 09:20:19;;;;;;;1.05;0.50;;;;;;;40.24;nan;101281.56;4984893;28;20050;-75
2022/06/17 09:22:54;;;;;;;2.43;0.77;;;;;;;39.91;nan;101286.91;4976213;28;20038;-74
2022/06/17 09:25:24;;;;;;;0.80;0.57;;;;;;;40.09;nan;101288.47;4991474;28;20041;-74
2022/06/17 09:27:53;;;;;;;2.60;0.68;;;;;;;40.65;nan;101287.47;4990497;28;20122;-74
2022/06/17 09:30:22;;;;;;;1.08;0.50;;;;;;;40.85;nan;101285.88;4990904;28;20034;-75
2022/06/17 09:33:02;;;;;;;1.60;0.68;;;;;;;41.04;nan;101297.28;4986605;28;20042;-75
2022/06/17 09:35:39;;;;;;;1.50;0.70;;;;;;;40.60;nan;101296.00;4992115;28;20069;-75
2022/06/17 09:38:21;;;;;;;1.13;0.60;;;;;;;40.35;nan;101301.38;4974158;28;20050;-75
2022/06/17 09:40:54;;;;;;;1.38;0.55;;;;;;;40.72;nan;101290.56;4991357;28;20237;-74
2022/06/17 09:43:32;;;;;;;1.90;0.65;;;;;;;40.23;nan;101302.06;4992605;28;20026;-74
2022/06/17 09:46:35;;;;;;;1.25;0.70;;;;;;;40.06;nan;101302.97;4987783;28;20064;-74
2022/06/17 09:49:09;;;;;;;;;;;;;;;40.31;nan;101300.44;4992483;28;20038;-74
2022/06/17 09:51:45;;;;;;;1.55;0.75;;;;;;;40.65;nan;101304.91;4993595;28;20350;-75
2022/06/17 09:54:19;;;;;;;2.95;0.90;;;;;;;40.53;nan;101305.66;4991858;28;20026;-75
2022/06/17 09:56:51;;;;;;;1.27;0.73;;;;;;;40.28;nan;101301.88;4992510;28;20413;-72
2022/06/17 09:59:22;;;;;;;2.10;0.85;;;;;;;40.19;nan;101309.44;4991749;28;20030;-74
2022/06/17 10:01:48;;;;;;;;;;;;;;;39.87;nan;101310.88;4980386;28;20038;-75
2022/06/17 10:04:15;;;;;;;0.70;0.50;;;;;;;40.67;nan;101301.81;4994441;28;19920;-74
2022/06/17 10:06:46;;;;;;;1.27;0.60;;;;;;;41.48;nan;101307.97;4992309;28;20329;-75
2022/06/17 10:09:21;;;;;;;1.40;0.60;;;;;;;41.58;nan;101305.59;4991509;28;20162;-74
2022/06/17 10:11:53;;;;;;;0.82;0.60;;;;;;;41.52;nan;101300.56;4991196;28;20042;-74
2022/06/17 10:14:27;;;;;;;1.13;0.63;;;;;;;41.67;nan;101304.66;4990478;28;20042;-74
2022/06/17 10:20:17;;;;;;;2.53;0.68;;;;;;;42.18;nan;101305.19;4987337;28;20515;-74
2022/06/17 10:22:49;;;;;;;0.88;0.50;;;;;;;42.92;nan;101305.09;4996349;28;20449;-74
2022/06/17 10:25:31;;;;;;;1.13;0.40;;;;;;;43.08;nan;101296.78;4988816;28;20410;-74
2022/06/17 10:28:01;;;;;;;0.93;0.60;;;;;;;43.51;nan;101293.19;4989909;28;20609;-75
2022/06/17 10:30:36;;;;;;;1.60;0.77;;;;;;;43.68;nan;101297.63;4990506;28;20046;-75
2022/06/17 10:33:01;;;;;;;0.85;0.60;;;;;;;42.96;nan;101290.09;4997385;28;20066;-74
2022/06/17 10:35:31;;;;;;;1.00;0.50;;;;;;;43.13;nan;101299.31;4992005;28;19917;-74
2022/06/17 10:38:00;;;;;;;1.30;0.70;;;;;;;43.41;nan;101297.31;4994880;28;20038;-74
2022/06/17 10:40:29;;;;;;;0.90;0.60;;;;;;;43.64;nan;101297.53;4991687;28;20050;-75
2022/06/17 10:42:59;;;;;;;1.42;0.50;;;;;;;43.95;nan;101295.09;4972827;28;20030;-75
2022/06/17 10:45:25;;;;;;;0.98;0.60;;;;;;;44.31;nan;101292.00;4988481;28;20057;-74
2022/06/17 10:48:26;;;;;;;1.27;0.60;;;;;;;44.65;nan;101294.34;4988713;28;20411;-74
2022/06/17 10:50:51;;;;;;;1.33;0.55;;;;;;;45.03;nan;101292.72;4987496;28;20038;-73
2022/06/17 10:53:34;;;;;;;1.42;0.57;;;;;;;45.05;nan;101284.78;4988498;28;20038;-73
2022/06/17 10:56:05;;;;;;;1.00;0.60;;;;;;;45.26;nan;101282.41;4982586;28;20038;-72
2022/06/17 10:58:33;;;;;;;0.93;0.52;;;;;;;45.59;nan;101283.81;4986615;28;20672;-72
2022/06/17 11:01:05;;;;;;;1.60;0.65;;;;;;;45.54;nan;101284.09;4987112;28;20482;-72
2022/06/17 11:03:34;;;;;;;1.58;0.80;;;;;;;45.35;nan;101279.41;4986669;28;20049;-72
2022/06/17 11:06:06;;;;;;;1.77;0.90;;;;;;;45.20;nan;101278.34;4980886;28;20543;-72
2022/06/17 11:08:54;;;;;;;2.15;0.65;;;;;;;45.12;nan;101277.34;4989161;28;20048;-72
2022/06/17 11:14:57;;;;;;;1.13;0.50;;;;;;;45.40;nan;101278.28;4987544;28;20081;-72
2022/06/17 11:17:32;;;;;;;1.10;0.60;;;;;;;45.78;nan;101277.34;4980984;28;20065;-72
2022/06/17 11:20:17;;;;;;;0.73;0.57;;;;;;;46.02;nan;101264.97;4986885;28;20045;-72
2022/06/17 11:23:02;;;;;;;2.58;0.63;;;;;;;46.43;nan;101270.72;4987396;28;20061;-72
2022/06/17 11:25:30;;;;;;;0.63;0.47;;;;;;;46.84;nan;101276.44;4987251;28;20077;-72
2022/06/17 11:28:11;;;;;;;1.17;0.50;;;;;;;46.76;nan;101274.75;4983799;28;20499;-72
2022/06/17 11:30:48;;;;;;;1.30;0.60;;;;;;;47.06;nan;101279.47;4985988;28;20046;-72
2022/06/17 11:33:30;;;;;;;0.90;0.50;;;;;;;47.62;nan;101278.44;4987211;28;20065;-72
2022/06/17 11:36:32;;;;;;;1.23;0.60;;;;;;;47.38;nan;101272.22;4984493;28;20038;-72
2022/06/17 11:39:21;;;;;;;0.77;0.40;;;;;;;46.69;nan;101260.66;4968590;28;20049;-73
2022/06/17 11:41:46;;;;;;;1.08;0.70;;;;;;;47.02;nan;101266.25;4988057;28;20061;-73
2022/06/17 11:44:19;;;;;;;1.53;0.63;;;;;;;46.82;nan;101264.84;4984198;28;20030;-73
2022/06/17 11:46:52;;;;;;;1.17;0.75;;;;;;;46.91;nan;101259.72;4987422;28;20286;-73
2022/06/17 11:49:19;;;;;;;2.05;0.60;;;;;;;46.37;nan;101253.50;4986764;28;20133;-74
2022/06/17 11:51:50;;;;;;;0.93;0.60;;;;;;;45.94;nan;101249.25;4987753;28;20073;-73
2022/06/17 11:54:20;;;;;;;2.05;0.60;;;;;;;45.80;nan;101247.03;4992999;28;20030;-73
2022/06/17 11:56:47;;;;;;;1.95;0.60;;;;;;;46.40;nan;101243.53;4982323;28;20037;-73
2022/06/17 11:59:19;;;;;;;1.27;0.57;;;;;;;47.10;nan;101241.16;4996553;28;20026;-74
2022/06/17 12:01:49;;;;;;;0.95;0.50;;;;;;;47.00;nan;101229.41;4988801;28;20031;-73
2022/06/17 12:04:46;;;;;;;1.15;0.60;;;;;;;47.54;nan;101231.97;4984699;28;20034;-74
2022/06/17 12:07:40;;;;;;;0.95;0.60;;;;;;;46.88;nan;101220.50;4983484;28;20046;-73
2022/06/17 12:10:14;;;;;;;1.08;0.68;;;;;;;47.01;nan;101228.25;4965929;28;20279;-74
2022/06/17 12:12:41;;;;;;;1.45;0.60;;;;;;;47.72;nan;101235.66;4983316;28;20061;-73
2022/06/17 12:15:47;;;;;;;1.90;0.68;;;;;;;48.17;nan;101230.75;4987227;28;20031;-73
2022/06/17 12:18:34;;;;;;;1.25;0.75;;;;;;;48.19;nan;101233.16;4989828;28;20026;-73